createdAt,value
2019-02-18T00:01:54.912Z,18.00
2019-02-18T00:04:26.095Z,19.40
2019-02-18T00:06:57.408Z,17.23
2019-02-18T00:09:28.548Z,17.90
2019-02-18T00:11:59.917Z,16.53
2019-02-18T00:14:31.026Z,20.37
2019-02-18T00:17:02.179Z,19.27
2019-02-18T00:19:33.308Z,19.50
2019-02-18T00:22:04.584Z,16.50
2019-02-18T00:24:35.764Z,22.90
2019-02-18T00:27:07.088Z,20.20
2019-02-18T00:29:38.226Z,19.17
2019-02-18T00:32:09.568Z,19.57
2019-02-18T00:34:40.663Z,16.43
2019-02-18T00:37:12.160Z,18.57
2019-02-18T00:39:43.520Z,19.90
2019-02-18T00:42:26.388Z,19.60
2019-02-18T00:44:57.474Z,17.57
2019-02-18T00:47:28.676Z,18.83
2019-02-18T00:49:59.762Z,22.27
2019-02-18T00:52:31.132Z,21.90
2019-02-18T00:55:02.200Z,20.27
2019-02-18T00:57:33.538Z,18.17
2019-02-18T01:00:05.330Z,15.30
2019-02-18T01:02:37.242Z,15.77
2019-02-18T01:05:08.520Z,16.63
2019-02-18T01:07:39.834Z,20.27
2019-02-18T01:10:12.484Z,17.20
2019-02-18T01:12:43.964Z,29.50
2019-02-18T01:15:15.038Z,16.17
2019-02-18T01:17:46.464Z,17.67
2019-02-18T01:20:17.502Z,16.63
2019-02-18T01:22:48.861Z,23.47
2019-02-18T01:25:19.986Z,23.37
2019-02-18T01:27:51.453Z,18.13
2019-02-18T01:30:22.564Z,16.83
2019-02-18T01:32:53.950Z,21.27
2019-02-18T01:35:25.095Z,28.20
2019-02-18T01:37:56.372Z,19.37
2019-02-18T01:40:27.440Z,19.60
2019-02-18T01:42:58.728Z,19.40
2019-02-18T01:45:29.831Z,17.30
2019-02-18T01:48:01.129Z,19.70
2019-02-18T01:50:32.228Z,18.27
2019-02-18T01:53:03.366Z,21.03
2019-02-18T01:55:34.458Z,18.17
2019-02-18T01:58:05.803Z,19.60
2019-02-18T02:00:36.970Z,18.10
2019-02-18T02:03:08.231Z,18.33
2019-02-18T02:05:39.603Z,18.37
2019-02-18T02:08:10.992Z,18.43
2019-02-18T02:10:42.166Z,23.07
2019-02-18T02:13:32.549Z,19.30
2019-02-18T02:16:09.318Z,22.40
2019-02-18T02:18:40.585Z,16.20
2019-02-18T02:21:11.653Z,20.00
2019-02-18T02:23:43.056Z,21.67
2019-02-18T02:26:14.288Z,17.10
2019-02-18T02:28:45.740Z,23.47
2019-02-18T02:31:18.137Z,18.67
2019-02-18T02:33:49.468Z,17.90
2019-02-18T02:36:20.515Z,26.80
2019-02-18T02:38:51.656Z,19.03
2019-02-18T02:41:22.756Z,18.33
2019-02-18T02:43:54.184Z,21.50
2019-02-18T02:46:25.295Z,16.97
2019-02-18T02:49:15.594Z,22.87
2019-02-18T02:51:46.757Z,19.70
2019-02-18T02:54:18.087Z,19.47
2019-02-18T02:56:49.182Z,19.30
2019-02-18T02:59:20.882Z,18.07
2019-02-18T03:01:52.019Z,18.60
2019-02-18T03:04:23.359Z,24.83
2019-02-18T03:06:54.510Z,21.20
2019-02-18T03:09:25.674Z,19.70
2019-02-18T03:11:56.785Z,22.40
2019-02-18T03:14:28.064Z,21.83
2019-02-18T03:16:59.110Z,23.20
2019-02-18T03:19:30.396Z,17.85
2019-02-18T03:22:01.482Z,22.83
2019-02-18T03:24:32.847Z,17.90
2019-02-18T03:27:03.987Z,17.13
2019-02-18T03:30:22.256Z,18.37
2019-02-18T03:32:56.209Z,18.60
2019-02-18T03:35:27.602Z,16.20
2019-02-18T03:37:58.856Z,16.93
2019-02-18T03:40:30.948Z,16.47
2019-02-18T03:43:02.146Z,21.07
2019-02-18T03:45:33.377Z,22.27
2019-02-18T03:48:04.550Z,18.20
2019-02-18T03:50:35.966Z,18.30
2019-02-18T03:53:07.096Z,22.40
2019-02-18T03:55:38.243Z,21.73
2019-02-18T03:58:09.484Z,20.20
2019-02-18T04:00:40.798Z,20.10
2019-02-18T04:03:11.896Z,20.73
2019-02-18T04:05:43.285Z,18.60
2019-02-18T04:08:14.373Z,18.03
2019-02-18T04:10:45.794Z,16.93
2019-02-18T04:13:16.942Z,19.47
2019-02-18T04:15:48.472Z,19.93
2019-02-18T04:18:19.672Z,24.10
2019-02-18T04:20:50.984Z,19.20
2019-02-18T04:23:22.081Z,30.43
2019-02-18T04:25:53.373Z,19.87
2019-02-18T04:28:24.524Z,18.73
2019-02-18T04:30:55.864Z,24.33
2019-02-18T04:33:26.936Z,17.63
2019-02-18T04:35:58.104Z,22.77
2019-02-18T04:38:29.183Z,19.67
2019-02-18T04:41:00.866Z,24.63
2019-02-18T04:43:31.912Z,20.60
2019-02-18T04:46:03.245Z,21.13
2019-02-18T04:48:34.301Z,23.97
2019-02-18T04:51:05.649Z,23.17
2019-02-18T04:53:36.760Z,21.90
2019-02-18T04:56:08.133Z,18.90
2019-02-18T04:58:39.209Z,23.57
2019-02-18T05:01:10.530Z,18.40
2019-02-18T05:03:41.628Z,18.50
2019-02-18T05:06:12.977Z,18.70
2019-02-18T05:08:44.175Z,20.00
2019-02-18T05:11:15.621Z,18.73
2019-02-18T05:13:46.774Z,17.33
2019-02-18T05:16:17.974Z,17.40
2019-02-18T05:18:49.029Z,19.67
2019-02-18T05:21:20.348Z,19.40
2019-02-18T05:23:51.397Z,22.83
2019-02-18T05:26:22.784Z,22.23
2019-02-18T05:28:53.849Z,18.93
2019-02-18T05:31:25.181Z,16.30
2019-02-18T05:33:56.220Z,18.40
2019-02-18T05:36:27.478Z,19.53
2019-02-18T05:38:58.626Z,17.67
2019-02-18T05:41:31.198Z,19.80
2019-02-18T05:44:02.621Z,19.93
2019-02-18T05:46:33.994Z,18.30
2019-02-18T05:49:05.060Z,17.90
2019-02-18T05:51:36.380Z,15.30
2019-02-18T05:54:07.438Z,15.57
2019-02-18T05:56:38.791Z,20.00
2019-02-18T05:59:09.854Z,18.43
2019-02-18T06:01:41.152Z,20.93
2019-02-18T06:04:12.221Z,16.87
2019-02-18T06:06:43.456Z,16.40
2019-02-18T06:09:14.616Z,22.60
2019-02-18T06:11:45.955Z,16.47
2019-02-18T06:14:17.068Z,16.40
2019-02-18T06:16:48.383Z,18.00
2019-02-18T06:19:19.502Z,18.50
2019-02-18T06:21:50.888Z,18.97
2019-02-18T06:24:22.008Z,16.27
2019-02-18T06:26:53.431Z,17.63
2019-02-18T06:29:24.536Z,16.10
2019-02-18T06:31:55.929Z,20.40
2019-02-18T06:34:27.070Z,17.97
2019-02-18T06:36:58.369Z,17.90
2019-02-18T06:39:40.222Z,16.87
2019-02-18T06:42:02.448Z,17.77
2019-02-18T06:44:38.944Z,19.30
2019-02-18T06:47:13.757Z,18.93
2019-02-18T06:49:44.906Z,15.90
2019-02-18T06:52:16.281Z,18.20
2019-02-18T06:54:47.462Z,19.00
2019-02-18T06:57:47.004Z,20.47
2019-02-18T07:00:37.083Z,18.73
2019-02-18T07:03:21.172Z,17.00
2019-02-18T07:06:00.024Z,21.73
2019-02-18T07:08:56.442Z,22.83
2019-02-18T07:11:52.444Z,16.00
2019-02-18T07:14:23.784Z,16.67
2019-02-18T07:16:54.968Z,17.93
2019-02-18T07:19:26.278Z,18.60
2019-02-18T07:21:57.404Z,18.47
2019-02-18T07:24:28.772Z,16.17
2019-02-18T07:26:59.882Z,16.83
2019-02-18T07:29:31.286Z,19.07
2019-02-18T07:32:02.368Z,18.60
2019-02-18T07:34:33.773Z,19.73
2019-02-18T07:37:04.882Z,16.30
2019-02-18T07:39:36.260Z,17.60
2019-02-18T07:42:07.322Z,20.17
2019-02-18T07:44:38.754Z,22.30
2019-02-18T07:47:09.903Z,18.17
2019-02-18T07:49:41.272Z,20.03
2019-02-18T07:52:12.438Z,17.37
2019-02-18T07:54:43.749Z,19.43
2019-02-18T07:57:14.899Z,22.50
2019-02-18T07:59:46.362Z,19.67
2019-02-18T08:02:18.368Z,18.40
2019-02-18T08:04:50.896Z,16.80
2019-02-18T08:07:22.035Z,20.13
2019-02-18T08:09:53.489Z,18.83
2019-02-18T08:12:24.581Z,16.50
2019-02-18T08:14:55.864Z,17.03
2019-02-18T08:17:26.952Z,16.13
2019-02-18T08:19:58.254Z,16.30
2019-02-18T08:22:29.396Z,16.80
2019-02-18T08:25:00.758Z,16.40
2019-02-18T08:27:32.036Z,20.10
2019-02-18T08:30:03.460Z,29.60
2019-02-18T08:32:36.008Z,17.73
2019-02-18T08:35:07.694Z,24.63
2019-02-18T08:37:38.863Z,19.47
2019-02-18T08:40:10.894Z,15.00
2019-02-18T08:42:41.966Z,16.67
2019-02-18T08:45:13.389Z,27.03
2019-02-18T08:47:44.562Z,18.47
2019-02-18T08:50:15.792Z,23.97
2019-02-18T08:52:46.864Z,39.70
2019-02-18T08:55:18.276Z,29.03
2019-02-18T08:57:49.430Z,20.33
2019-02-18T09:00:20.690Z,20.00
2019-02-18T09:02:51.836Z,21.03
2019-02-18T09:05:23.360Z,21.43
2019-02-18T09:07:54.557Z,28.53
2019-02-18T09:10:33.751Z,26.40
2019-02-18T09:13:00.027Z,24.73
2019-02-18T09:15:31.426Z,19.73
2019-02-18T09:18:02.550Z,16.33
2019-02-18T09:20:33.992Z,24.37
2019-02-18T09:23:32.824Z,18.37
2019-02-18T09:26:05.092Z,17.80
2019-02-18T09:28:36.192Z,16.27
2019-02-18T09:31:07.388Z,14.43
2019-02-18T09:33:38.698Z,17.73
2019-02-18T09:36:09.973Z,18.80
2019-02-18T09:38:41.024Z,18.50
2019-02-18T09:41:12.395Z,22.23
2019-02-18T09:43:43.452Z,18.43
2019-02-18T09:46:14.648Z,15.70
2019-02-18T09:48:45.719Z,18.57
2019-02-18T09:51:17.054Z,17.37
2019-02-18T09:53:48.236Z,19.70
2019-02-18T09:56:19.659Z,26.30
2019-02-18T09:58:50.845Z,22.47
2019-02-18T10:01:22.000Z,17.20
2019-02-18T10:03:53.064Z,14.93
2019-02-18T10:06:24.308Z,19.40
2019-02-18T10:08:55.421Z,23.67
2019-02-18T10:11:26.832Z,15.43
2019-02-18T10:13:57.925Z,14.40
2019-02-18T10:16:29.340Z,16.63
2019-02-18T10:19:00.414Z,15.23
2019-02-18T10:21:31.808Z,14.00
2019-02-18T10:24:02.978Z,12.80
2019-02-18T10:26:34.367Z,18.20
2019-02-18T10:29:05.604Z,13.73
2019-02-18T10:31:36.899Z,16.03
2019-02-18T10:34:07.988Z,14.47
2019-02-18T10:36:39.292Z,17.20
2019-02-18T10:39:10.379Z,13.43
2019-02-18T10:41:41.997Z,22.40
2019-02-18T10:44:13.130Z,15.33
2019-02-18T10:46:44.515Z,15.80
2019-02-18T10:49:19.815Z,13.90
2019-02-18T10:51:48.731Z,20.90
2019-02-18T10:54:19.976Z,19.10
2019-02-18T10:56:51.442Z,26.00
2019-02-18T10:59:22.613Z,14.27
2019-02-18T11:01:53.857Z,21.27
2019-02-18T11:04:24.930Z,18.80
2019-02-18T11:06:56.318Z,30.47
2019-02-18T11:09:27.377Z,23.40
2019-02-18T11:11:58.804Z,16.20
2019-02-18T11:14:29.975Z,16.97
2019-02-18T11:17:01.422Z,18.00
2019-02-18T11:19:32.482Z,15.93
2019-02-18T11:22:03.896Z,16.13
2019-02-18T11:24:35.045Z,14.83
2019-02-18T11:27:06.392Z,16.67
2019-02-18T11:29:56.560Z,13.40
2019-02-18T11:32:27.798Z,17.63
2019-02-18T11:35:00.526Z,14.93
2019-02-18T11:37:32.958Z,14.40
2019-02-18T11:40:04.345Z,18.10
2019-02-18T11:42:37.419Z,16.43
2019-02-18T11:45:10.320Z,13.07
2019-02-18T11:47:41.734Z,16.07
2019-02-18T11:50:14.037Z,16.60
2019-02-18T11:52:45.536Z,16.17
2019-02-18T11:55:16.579Z,14.70
2019-02-18T11:57:48.280Z,14.50
2019-02-18T12:00:19.348Z,13.50
2019-02-18T12:02:50.689Z,15.60
2019-02-18T12:05:22.019Z,16.17
2019-02-18T12:07:53.369Z,16.50
2019-02-18T12:10:25.055Z,14.13
2019-02-18T12:12:56.477Z,15.13
2019-02-18T12:15:27.593Z,15.53
2019-02-18T12:17:59.057Z,16.10
2019-02-18T12:20:30.233Z,16.17
2019-02-18T12:23:01.438Z,17.53
2019-02-18T12:25:32.670Z,16.90
2019-02-18T12:28:04.270Z,14.63
2019-02-18T12:30:35.332Z,14.20
2019-02-18T12:33:06.656Z,15.60
2019-02-18T12:35:37.729Z,17.10
2019-02-18T12:38:09.161Z,15.17
2019-02-18T12:40:40.275Z,14.47
2019-02-18T12:43:11.652Z,13.17
2019-02-18T12:45:42.832Z,18.60
2019-02-18T12:48:14.249Z,13.13
2019-02-18T12:50:45.483Z,15.00
2019-02-18T12:53:16.945Z,19.77
2019-02-18T12:55:48.120Z,16.70
2019-02-18T12:58:19.654Z,14.27
2019-02-18T13:00:50.893Z,16.27
2019-02-18T13:03:22.503Z,16.77
2019-02-18T13:05:53.666Z,18.70
2019-02-18T13:08:25.277Z,20.47
2019-02-18T13:10:56.689Z,15.60
2019-02-18T13:13:31.348Z,17.97
2019-02-18T13:16:01.943Z,16.47
2019-02-18T13:18:33.934Z,20.23
2019-02-18T13:21:05.080Z,20.10
2019-02-18T13:23:36.539Z,17.97
2019-02-18T13:26:07.692Z,18.53
2019-02-18T13:28:39.120Z,20.63
2019-02-18T13:31:10.320Z,16.87
2019-02-18T13:33:41.717Z,20.10
2019-02-18T13:36:15.139Z,17.13
2019-02-18T13:38:46.561Z,21.53
2019-02-18T13:41:17.792Z,19.30
2019-02-18T13:43:49.116Z,25.03
2019-02-18T13:46:20.196Z,18.77
2019-02-18T13:48:51.554Z,20.03
2019-02-18T13:51:24.462Z,22.27
2019-02-18T13:53:55.838Z,23.87
2019-02-18T13:56:26.960Z,20.13
2019-02-18T13:58:58.283Z,20.07
2019-02-18T14:01:29.428Z,17.03
2019-02-18T14:04:00.776Z,25.10
2019-02-18T14:06:31.954Z,16.43
2019-02-18T14:09:04.517Z,23.83
2019-02-18T14:11:37.234Z,18.80
2019-02-18T14:14:08.632Z,16.87
2019-02-18T14:16:39.809Z,16.53
2019-02-18T14:19:11.252Z,19.17
2019-02-18T14:21:42.694Z,17.17
2019-02-18T14:24:14.299Z,18.13
2019-02-18T14:26:45.395Z,17.23
2019-02-18T14:29:16.830Z,17.83
2019-02-18T14:31:47.912Z,15.10
2019-02-18T14:34:19.432Z,15.07
2019-02-18T14:36:50.786Z,15.90
2019-02-18T14:39:26.585Z,15.23
2019-02-18T14:41:57.788Z,15.33
2019-02-18T14:44:29.171Z,14.43
2019-02-18T14:47:00.282Z,15.80
2019-02-18T14:49:31.807Z,12.40
2019-02-18T14:52:03.014Z,12.67
2019-02-18T14:54:34.521Z,12.30
2019-02-18T14:57:06.124Z,12.00
2019-02-18T14:59:37.424Z,14.30
2019-02-18T15:02:09.721Z,11.07
2019-02-18T15:04:41.066Z,12.00
2019-02-18T15:07:12.169Z,14.93
2019-02-18T15:09:43.440Z,13.87
2019-02-18T15:12:14.574Z,12.87
2019-02-18T15:14:45.846Z,13.03
2019-02-18T15:17:17.128Z,14.10
2019-02-18T15:19:48.528Z,14.23
2019-02-18T15:22:19.677Z,15.83
2019-02-18T15:24:51.182Z,14.63
2019-02-18T15:27:22.654Z,26.93
2019-02-18T15:29:54.031Z,12.07
2019-02-18T15:32:25.263Z,18.40
2019-02-18T15:34:56.636Z,13.13
2019-02-18T15:37:27.814Z,13.23
2019-02-18T15:39:59.225Z,17.97
2019-02-18T15:42:30.486Z,14.57
2019-02-18T15:45:01.928Z,18.70
2019-02-18T15:47:34.354Z,16.20
2019-02-18T15:50:06.582Z,18.00
2019-02-18T15:52:37.716Z,17.07
2019-02-18T15:55:09.789Z,19.70
2019-02-18T15:57:41.013Z,15.90
2019-02-18T16:00:15.807Z,14.90
2019-02-18T16:02:47.274Z,18.30
2019-02-18T16:05:18.760Z,17.80
2019-02-18T16:07:49.902Z,13.80
2019-02-18T16:10:21.252Z,14.97
2019-02-18T16:12:52.421Z,13.73
2019-02-18T16:15:23.858Z,20.47
2019-02-18T16:17:55.088Z,17.17
2019-02-18T16:20:26.368Z,15.60
2019-02-18T16:22:57.412Z,17.83
2019-02-18T16:25:28.815Z,18.57
2019-02-18T16:28:00.048Z,16.37
2019-02-18T16:30:31.333Z,17.23
2019-02-18T16:33:02.496Z,16.00
2019-02-18T16:35:34.549Z,23.23
2019-02-18T16:38:05.850Z,20.60
2019-02-18T16:40:37.553Z,19.10
2019-02-18T16:43:08.724Z,21.60
2019-02-18T16:45:40.095Z,19.60
2019-02-18T16:48:11.514Z,21.30
2019-02-18T16:50:43.273Z,24.20
2019-02-18T16:53:14.387Z,22.10
2019-02-18T16:55:45.856Z,18.23
2019-02-18T16:58:17.114Z,25.37
2019-02-18T17:00:48.456Z,23.57
2019-02-18T17:03:19.697Z,19.40
2019-02-18T17:05:51.064Z,20.93
2019-02-18T17:08:22.140Z,23.80
2019-02-18T17:10:53.445Z,24.53
2019-02-18T17:13:24.600Z,25.30
2019-02-18T17:15:56.102Z,29.80
2019-02-18T17:18:27.360Z,24.67
2019-02-18T17:20:58.748Z,24.70
2019-02-18T17:23:29.912Z,27.90
2019-02-18T17:26:01.234Z,24.20
2019-02-18T17:28:32.553Z,23.50
2019-02-18T17:31:04.032Z,28.00
2019-02-18T17:33:35.482Z,25.53
2019-02-18T17:36:06.685Z,22.80
2019-02-18T17:38:37.876Z,24.73
2019-02-18T17:41:09.240Z,27.07
2019-02-18T17:43:40.419Z,22.63
2019-02-18T17:46:12.222Z,25.80
2019-02-18T17:48:43.474Z,26.13
2019-02-18T17:51:14.736Z,22.80
2019-02-18T17:53:46.220Z,23.27
2019-02-18T17:56:17.895Z,21.63
2019-02-18T17:58:49.294Z,22.83
2019-02-18T18:01:20.554Z,27.60
2019-02-18T18:03:51.684Z,26.57
2019-02-18T18:06:23.042Z,23.47
2019-02-18T18:08:54.223Z,27.20
2019-02-18T18:11:25.540Z,30.90
2019-02-18T18:13:56.678Z,28.23
2019-02-18T18:16:28.255Z,20.00
2019-02-18T18:18:59.484Z,25.03
2019-02-18T18:21:32.061Z,26.90
2019-02-18T18:24:03.399Z,27.87
2019-02-18T18:26:34.871Z,23.37
2019-02-18T18:29:06.176Z,29.90
2019-02-18T18:31:37.968Z,29.00
2019-02-18T18:34:09.174Z,27.67
2019-02-18T18:36:40.527Z,27.77
2019-02-18T18:39:11.782Z,24.90
2019-02-18T18:41:43.608Z,22.07
2019-02-18T18:44:14.996Z,23.97
2019-02-18T18:46:46.380Z,26.17
2019-02-18T18:49:17.829Z,26.83
2019-02-18T18:51:49.686Z,26.27
2019-02-18T18:54:20.905Z,24.37
2019-02-18T18:56:52.578Z,26.23
2019-02-18T18:59:23.820Z,23.13
2019-02-18T19:01:55.926Z,28.40
2019-02-18T19:04:27.334Z,25.40
2019-02-18T19:06:58.822Z,25.17
2019-02-18T19:09:30.125Z,26.23
2019-02-18T19:12:01.478Z,24.93
2019-02-18T19:14:33.373Z,25.63
2019-02-18T19:17:04.740Z,24.20
2019-02-18T19:19:36.044Z,25.03
2019-02-18T19:22:07.660Z,23.17
2019-02-18T19:24:38.971Z,23.37
2019-02-18T19:27:10.836Z,37.40
2019-02-18T19:29:42.430Z,28.47
2019-02-18T19:32:14.078Z,23.20
2019-02-18T19:34:45.326Z,30.93
2019-02-18T19:37:16.868Z,25.60
2019-02-18T19:39:48.304Z,30.20
2019-02-18T19:42:19.956Z,24.03
2019-02-18T19:44:51.312Z,20.77
2019-02-18T19:47:22.747Z,26.50
2019-02-18T19:49:54.010Z,30.07
2019-02-18T19:52:25.550Z,28.80
2019-02-18T19:54:56.940Z,32.33
2019-02-18T19:57:28.433Z,27.00
2019-02-18T19:59:59.668Z,25.70
2019-02-18T20:02:31.259Z,25.40
2019-02-18T20:05:02.700Z,22.20
2019-02-18T20:07:34.218Z,25.70
2019-02-18T20:10:06.263Z,27.00
2019-02-18T20:12:37.691Z,21.40
2019-02-18T20:15:09.652Z,28.93
2019-02-18T20:17:40.936Z,27.63
2019-02-18T20:20:12.538Z,27.57
2019-02-18T20:22:44.061Z,26.70
2019-02-18T20:25:15.250Z,27.10
2019-02-18T20:27:47.005Z,28.30
2019-02-18T20:30:18.192Z,32.23
2019-02-18T20:32:49.561Z,27.27
2019-02-18T20:35:20.693Z,27.33
2019-02-18T20:37:52.228Z,27.97
2019-02-18T20:40:23.909Z,24.93
2019-02-18T20:42:56.627Z,27.23
2019-02-18T20:45:27.851Z,21.50
2019-02-18T20:47:59.280Z,22.70
2019-02-18T20:50:30.774Z,28.73
2019-02-18T20:53:02.974Z,27.27
2019-02-18T20:55:34.204Z,32.43
2019-02-18T20:58:05.566Z,30.33
2019-02-18T21:00:36.816Z,25.00
2019-02-18T21:03:08.360Z,24.97
2019-02-18T21:05:39.821Z,30.20
2019-02-18T21:08:11.111Z,25.63
2019-02-18T21:10:42.189Z,23.47
2019-02-18T21:13:13.552Z,28.90
2019-02-18T21:15:44.660Z,39.90
2019-02-18T21:18:16.465Z,25.73
2019-02-18T21:20:47.606Z,22.40
2019-02-18T21:23:18.890Z,25.73
2019-02-18T21:25:50.010Z,31.53
2019-02-18T21:28:21.477Z,29.20
2019-02-18T21:30:52.924Z,25.60
2019-02-18T21:33:24.379Z,26.07
2019-02-18T21:35:55.459Z,31.67
2019-02-18T21:38:26.705Z,25.37
2019-02-18T21:40:57.836Z,26.80
2019-02-18T21:43:29.668Z,25.73
2019-02-18T21:46:00.876Z,26.97
2019-02-18T21:48:32.457Z,27.50
2019-02-18T21:51:03.522Z,31.47
2019-02-18T21:53:34.768Z,25.70
2019-02-18T21:56:06.455Z,32.17
2019-02-18T21:58:37.854Z,27.07
2019-02-18T22:01:09.032Z,28.50
2019-02-18T22:03:40.537Z,26.13
2019-02-18T22:06:11.737Z,25.33
2019-02-18T22:08:43.282Z,26.93
2019-02-18T22:11:14.498Z,25.67
2019-02-18T22:13:45.769Z,28.77
2019-02-18T22:16:16.965Z,23.80
2019-02-18T22:18:48.524Z,34.37
2019-02-18T22:21:19.740Z,30.83
2019-02-18T22:23:51.540Z,30.60
2019-02-18T22:26:22.645Z,36.23
2019-02-18T22:28:54.031Z,27.67
2019-02-18T22:31:25.492Z,31.07
2019-02-18T22:33:57.069Z,30.27
2019-02-18T22:36:29.468Z,30.33
2019-02-18T22:39:01.199Z,28.67
2019-02-18T22:41:33.932Z,35.43
2019-02-18T22:44:05.423Z,28.90
2019-02-18T22:46:36.580Z,29.40
2019-02-18T22:49:08.514Z,30.73
2019-02-18T22:51:39.635Z,30.83
2019-02-18T22:54:11.241Z,27.00
2019-02-18T22:56:42.373Z,31.23
2019-02-18T22:59:13.702Z,31.67
2019-02-18T23:01:44.795Z,32.07
2019-02-18T23:04:16.337Z,31.50
2019-02-18T23:06:47.759Z,31.20
2019-02-18T23:09:19.212Z,32.50
2019-02-18T23:11:50.323Z,37.30
2019-02-18T23:14:21.710Z,30.23
2019-02-18T23:16:52.814Z,35.43
2019-02-18T23:19:24.108Z,35.90
2019-02-18T23:21:55.210Z,28.70
2019-02-18T23:24:26.826Z,31.50
2019-02-18T23:26:58.048Z,36.47
2019-02-18T23:29:30.303Z,34.47
2019-02-18T23:32:01.494Z,32.27
2019-02-18T23:34:32.776Z,36.90
2019-02-18T23:37:04.004Z,31.30
2019-02-18T23:39:54.448Z,29.87
2019-02-18T23:42:25.702Z,32.47
2019-02-18T23:44:59.215Z,34.33
2019-02-18T23:47:29.945Z,30.97
2019-02-18T23:50:01.323Z,30.20
2019-02-18T23:52:32.474Z,31.87
2019-02-18T23:55:03.869Z,38.10
2019-02-18T23:57:35.035Z,32.40
